Time;durP1;ratioP1;P1;durP2;ratioP2;P2;SDS_P1;SDS_P2;PMS_P1;PMS_P2;Temp;Humidity;BMP_temperature;BMP_pressure;BME280_temperature;BME280_humidity;BME280_pressure;Samples;Min_cycle;Max_cycle;Signal;HPM_P1;HPM_P2
2022/08/17 00:00:30;;;;;;;6.45;5.18;;;;;;;22.63;63.51;99674.19;6273680;22;20011;-74
2022/08/17 00:03:25;;;;;;;8.73;5.07;;;;;;;22.73;63.43;99692.81;6273500;22;20368;-73
2022/08/17 00:06:02;;;;;;;6.78;5.40;;;;;;;22.70;63.52;99688.63;6272984;22;20034;-74
2022/08/17 00:08:36;;;;;;;7.75;5.93;;;;;;;22.67;63.99;99691.00;6273760;22;20395;-73
2022/08/17 00:11:05;;;;;;;6.68;5.55;;;;;;;22.66;63.76;99692.88;6272254;22;19999;-74
2022/08/17 00:13:36;;;;;;;6.45;5.43;;;;;;;22.61;63.89;99694.63;6272199;22;20147;-74
2022/08/17 00:16:10;;;;;;;5.80;5.03;;;;;;;22.58;64.07;99690.47;6272329;22;20458;-74
2022/08/17 00:18:35;;;;;;;9.32;5.63;;;;;;;22.48;64.25;99681.06;6271814;22;20015;-73
2022/08/17 00:21:03;;;;;;;8.32;5.53;;;;;;;22.45;64.62;99674.16;6273520;22;20016;-74
2022/08/17 00:23:29;;;;;;;7.70;5.57;;;;;;;22.51;64.67;99677.91;6272458;22;20007;-74
2022/08/17 00:25:54;;;;;;;10.15;5.63;;;;;;;22.40;64.84;99670.44;6272015;22;20034;-73
2022/08/17 00:28:20;;;;;;;10.98;6.05;;;;;;;22.47;65.66;99682.97;6273824;22;20008;-73
2022/08/17 00:30:48;;;;;;;8.23;6.10;;;;;;;22.45;65.91;99678.78;6271188;22;20916;-73
2022/08/17 00:33:17;;;;;;;8.98;5.80;;;;;;;22.20;65.61;99641.44;6273837;22;20025;-74
2022/08/17 00:35:44;;;;;;;9.73;5.50;;;;;;;22.41;65.62;99670.22;6273173;22;20000;-73
2022/08/17 00:38:11;;;;;;;8.75;5.10;;;;;;;22.34;65.94;99663.97;6271739;22;20029;-73
2022/08/17 00:41:00;;;;;;;7.35;5.53;;;;;;;22.36;66.14;99672.78;6272964;22;20000;-74
2022/08/17 00:43:42;;;;;;;8.52;5.68;;;;;;;22.33;66.36;99679.56;6271162;22;20007;-75
2022/08/17 00:46:28;;;;;;;9.55;5.20;;;;;;;21.72;66.31;99583.03;6271353;22;20086;-75
2022/08/17 00:49:03;;;;;;;10.75;5.57;;;;;;;21.12;66.88;99491.00;6270600;22;20019;-73
2022/08/17 00:51:39;;;;;;;11.80;5.70;;;;;;;21.16;66.83;99505.03;6270590;22;20012;-73
2022/08/17 00:54:21;;;;;;;10.65;6.05;;;;;;;22.08;66.99;99665.06;6271824;22;20016;-74
2022/08/17 00:56:51;;;;;;;9.00;5.32;;;;;;;21.97;66.65;99649.44;6273152;22;20004;-74
2022/08/17 00:59:20;;;;;;;6.60;5.55;;;;;;;22.13;66.63;99680.78;6273586;22;20317;-74
2022/08/17 01:01:48;;;;;;;7.55;5.32;;;;;;;22.05;66.76;99675.59;6272376;22;20435;-74
2022/08/17 01:04:16;;;;;;;9.32;5.55;;;;;;;22.02;66.72;99686.97;6272322;22;20018;-72
2022/08/17 01:06:44;;;;;;;8.10;5.55;;;;;;;22.04;66.86;99690.31;6271973;22;20010;-74
2022/08/17 01:09:09;;;;;;;9.38;6.10;;;;;;;22.01;66.61;99683.41;6274446;22;20011;-73
2022/08/17 01:11:38;;;;;;;7.40;6.07;;;;;;;22.00;66.78;99686.38;6271724;22;20008;-74
2022/08/17 01:14:03;;;;;;;8.52;5.50;;;;;;;21.90;67.10;99667.75;6271672;22;20010;-73
2022/08/17 01:16:30;;;;;;;7.93;6.07;;;;;;;21.98;67.60;99685.75;6273002;22;20007;-74
2022/08/17 01:19:00;;;;;;;7.63;5.80;;;;;;;21.99;67.79;99690.19;6273527;22;20050;-74
2022/08/17 01:21:30;;;;;;;8.88;5.72;;;;;;;21.98;68.30;99691.22;6273216;22;20016;-74
2022/08/17 01:23:56;;;;;;;12.65;5.30;;;;;;;21.96;68.82;99685.16;6273441;22;20078;-73
2022/08/17 01:26:22;;;;;;;8.05;5.80;;;;;;;21.96;68.82;99685.97;6271581;22;20078;-73
2022/08/17 01:28:48;;;;;;;10.77;5.68;;;;;;;21.84;68.53;99670.53;6269842;22;20011;-74
2022/08/17 01:31:13;;;;;;;10.68;6.35;;;;;;;21.92;68.42;99695.69;6271730;22;20369;-73
2022/08/17 01:33:39;;;;;;;8.48;6.10;;;;;;;21.80;68.21;99672.88;6271777;22;20298;-73
2022/08/17 01:36:06;;;;;;;10.15;5.50;;;;;;;21.85;67.77;99688.59;6271446;22;20318;-73
2022/08/17 01:38:32;;;;;;;8.20;5.78;;;;;;;21.93;67.64;99704.72;6270392;22;20012;-75
2022/08/17 01:41:02;;;;;;;8.55;6.03;;;;;;;21.92;67.80;99700.28;6271403;22;20003;-73
2022/08/17 01:43:33;;;;;;;8.82;6.38;;;;;;;21.89;67.73;99692.53;6271921;22;20004;-73
2022/08/17 01:46:00;;;;;;;12.95;6.72;;;;;;;21.88;68.20;99693.59;6271787;22;20004;-74
2022/08/17 01:48:30;;;;;;;10.05;6.13;;;;;;;21.80;68.27;99691.16;6272048;22;20020;-74
2022/08/17 01:50:56;;;;;;;7.32;5.85;;;;;;;21.85;68.48;99697.63;6271687;22;20061;-74
2022/08/17 01:53:33;;;;;;;8.65;6.35;;;;;;;21.64;68.40;99669.84;6273651;22;20417;-74
2022/08/17 01:56:04;;;;;;;8.40;5.90;;;;;;;21.79;68.37;99697.66;6273457;22;20425;-73
2022/08/17 01:58:32;;;;;;;6.80;6.10;;;;;;;21.75;68.81;99701.91;6273002;22;20004;-74
2022/08/17 02:00:57;;;;;;;6.55;5.32;;;;;;;21.66;69.36;99681.34;6270780;22;20401;-74
2022/08/17 02:03:23;;;;;;;7.70;6.32;;;;;;;21.51;69.64;99659.03;6272934;22;20007;-74
2022/08/17 02:05:49;;;;;;;6.70;6.00;;;;;;;21.70;70.08;99694.34;6272242;22;20011;-74
2022/08/17 02:08:16;;;;;;;7.03;5.65;;;;;;;21.58;70.04;99676.19;6272836;22;20014;-73
2022/08/17 02:10:42;;;;;;;7.68;6.35;;;;;;;21.65;70.10;99685.16;6272208;22;20438;-73
2022/08/17 02:13:08;;;;;;;8.48;6.25;;;;;;;21.54;70.04;99674.97;6272529;22;20344;-74
2022/08/17 02:15:34;;;;;;;12.35;5.90;;;;;;;21.61;70.69;99675.75;6270729;22;20000;-74
2022/08/17 02:18:01;;;;;;;9.00;6.38;;;;;;;21.60;70.78;99685.81;6272285;22;20395;-75
2022/08/17 02:20:30;;;;;;;6.78;6.00;;;;;;;21.52;70.84;99677.06;6272602;22;20091;-74
2022/08/17 02:22:59;;;;;;;8.82;6.32;;;;;;;21.48;71.21;99684.03;6272369;22;20344;-74
2022/08/17 02:25:25;;;;;;;11.15;6.72;;;;;;;21.55;71.32;99698.44;6270715;22;20008;-74
2022/08/17 02:27:50;;;;;;;9.13;5.88;;;;;;;21.41;71.42;99667.66;6272113;22;20000;-73
2022/08/17 02:30:16;;;;;;;9.98;6.70;;;;;;;21.44;71.90;99680.88;6270521;22;20424;-74
2022/08/17 02:32:42;;;;;;;8.50;6.63;;;;;;;21.51;71.93;99692.59;6272104;22;20008;-73
2022/08/17 02:35:08;;;;;;;8.27;6.85;;;;;;;21.43;72.09;99683.81;6270466;22;20008;-73
2022/08/17 02:37:35;;;;;;;7.28;6.55;;;;;;;21.42;72.19;99693.06;6272188;22;20064;-73
2022/08/17 02:40:00;;;;;;;11.82;7.35;;;;;;;21.31;72.32;99677.41;6270581;22;19996;-73
2022/08/17 02:42:30;;;;;;;9.45;6.40;;;;;;;21.39;72.28;99702.53;6272141;22;20035;-74
2022/08/17 02:44:56;;;;;;;12.80;7.25;;;;;;;21.36;72.54;99699.41;6270463;22;20096;-72
2022/08/17 02:47:22;;;;;;;16.00;7.13;;;;;;;21.23;72.86;99691.28;6272024;22;20007;-73
2022/08/17 02:49:47;;;;;;;11.00;6.30;;;;;;;21.24;72.67;99685.63;6270231;22;20012;-74
2022/08/17 02:52:12;;;;;;;10.80;6.35;;;;;;;21.04;72.79;99674.00;6271826;22;20012;-73
2022/08/17 02:54:38;;;;;;;9.50;6.10;;;;;;;21.14;72.98;99695.31;6271948;22;20080;-73
2022/08/17 02:57:03;;;;;;;9.05;6.45;;;;;;;20.99;72.88;99684.69;6270212;22;20003;-73
2022/08/17 02:59:29;;;;;;;10.23;6.50;;;;;;;21.01;72.86;99698.97;6272169;22;20316;-73
2022/08/17 03:01:55;;;;;;;7.40;6.43;;;;;;;20.90;73.24;99690.59;6269888;22;20011;-73
2022/08/17 03:04:21;;;;;;;12.25;7.03;;;;;;;20.86;73.91;99698.34;6271011;22;20012;-73
2022/08/17 03:06:47;;;;;;;7.30;5.65;;;;;;;20.85;73.77;99712.19;6272016;22;20615;-73
2022/08/17 03:09:12;;;;;;;12.73;6.78;;;;;;;20.76;73.90;99699.88;6273828;22;20007;-74
2022/08/17 03:11:38;;;;;;;16.20;7.20;;;;;;;20.73;74.20;99712.03;6274329;22;20077;-73
2022/08/17 03:14:03;;;;;;;12.68;7.72;;;;;;;20.69;73.90;99723.56;6272020;22;20007;-73
2022/08/17 03:16:29;;;;;;;11.30;6.68;;;;;;;20.52;73.38;99695.09;6274181;22;20004;-73
2022/08/17 03:18:54;;;;;;;11.38;7.07;;;;;;;20.61;73.61;99715.63;6273964;22;20022;-73
2022/08/17 03:21:20;;;;;;;9.75;7.05;;;;;;;20.56;73.76;99709.97;6273979;22;20012;-73
2022/08/17 03:23:46;;;;;;;11.85;7.75;;;;;;;20.54;73.86;99720.28;6274014;22;20069;-73
2022/08/17 03:26:11;;;;;;;12.13;7.65;;;;;;;20.46;73.68;99721.31;6274152;22;20003;-73
2022/08/17 03:28:37;;;;;;;8.80;7.20;;;;;;;20.45;73.85;99727.84;6274180;22;20498;-73
2022/08/17 03:31:04;;;;;;;10.27;7.45;;;;;;;20.42;74.48;99724.69;6274093;22;20498;-73
2022/08/17 03:33:32;;;;;;;10.40;7.22;;;;;;;20.38;74.98;99726.16;6273766;22;20018;-73
2022/08/17 03:35:58;;;;;;;11.80;7.40;;;;;;;20.38;75.25;99739.78;6274269;22;20007;-73
2022/08/17 03:38:24;;;;;;;10.40;7.18;;;;;;;20.34;75.57;99730.38;6272688;22;20019;-73
2022/08/17 03:40:51;;;;;;;16.23;7.80;;;;;;;20.23;76.41;99715.50;6274059;22;20007;-73
2022/08/17 03:43:18;;;;;;;20.60;7.97;;;;;;;20.26;76.45;99728.69;6274162;22;20348;-73
2022/08/17 03:57:06;;;;;;;13.38;7.60;;;;;;;20.12;77.31;99727.84;6273891;22;20456;-73
2022/08/17 03:59:33;;;;;;;14.55;7.60;;;;;;;20.14;77.28;99735.81;6274110;22;20443;-73
2022/08/17 04:02:03;;;;;;;17.02;8.18;;;;;;;20.13;77.89;99734.97;6273942;22;20010;-73
2022/08/17 04:04:29;;;;;;;13.43;8.10;;;;;;;20.10;78.14;99729.94;6274387;22;20007;-73
2022/08/17 04:06:55;;;;;;;10.23;7.68;;;;;;;20.05;77.94;99720.69;6273855;22;20008;-73
2022/08/17 04:09:20;;;;;;;16.58;8.30;;;;;;;20.14;78.10;99730.38;6274066;22;20429;-73
2022/08/17 04:11:46;;;;;;;15.73;8.68;;;;;;;20.15;78.41;99740.19;6273545;22;20006;-73
2022/08/17 04:14:11;;;;;;;15.00;7.95;;;;;;;20.13;78.60;99740.41;6274167;22;20031;-73
2022/08/17 04:16:37;;;;;;;18.02;10.13;;;;;;;20.07;78.58;99735.81;6271665;22;19999;-73
2022/08/17 04:19:04;;;;;;;24.40;10.02;;;;;;;20.07;80.03;99729.50;6274095;22;20451;-73
2022/08/17 04:21:29;;;;;;;22.15;10.07;;;;;;;20.06;81.99;99731.38;6273576;22;20014;-73
2022/08/17 04:23:56;;;;;;;25.23;9.57;;;;;;;20.19;81.33;99755.09;6273719;22;20008;-73
2022/08/17 04:26:22;;;;;;;33.30;10.70;;;;;;;20.21;80.22;99758.44;6273803;22;20011;-73
2022/08/17 04:28:48;;;;;;;31.70;10.13;;;;;;;20.23;80.07;99760.94;6273417;22;20007;-73
2022/08/17 04:31:15;;;;;;;22.20;8.40;;;;;;;20.31;78.89;99763.47;6274123;22;20004;-73
2022/08/17 04:33:44;;;;;;;17.63;9.95;;;;;;;20.36;78.61;99760.94;6273376;22;20454;-73
2022/08/17 04:36:13;;;;;;;20.83;9.00;;;;;;;20.38;78.67;99758.84;6273792;22;20007;-73
2022/08/17 04:38:41;;;;;;;17.23;8.93;;;;;;;20.49;78.48;99769.09;6273655;22;20083;-73
2022/08/17 04:43:57;;;;;;;20.33;10.15;;;;;;;20.72;78.55;99769.47;6273763;22;20018;-73
2022/08/17 04:46:34;;;;;;;19.27;9.65;;;;;;;20.83;78.81;99777.84;6272165;22;20011;-73
2022/08/17 04:49:03;;;;;;;18.20;9.23;;;;;;;20.95;77.12;99778.03;6273290;22;20082;-73
2022/08/17 04:51:31;;;;;;;16.75;8.77;;;;;;;21.09;76.68;99774.25;6273474;22;20011;-73
2022/08/17 04:54:02;;;;;;;15.32;9.55;;;;;;;21.21;75.88;99778.81;6273224;22;20078;-73
2022/08/17 04:56:30;;;;;;;12.35;8.80;;;;;;;21.31;74.80;99778.34;6273565;22;20000;-73
2022/08/17 04:59:01;;;;;;;16.02;8.77;;;;;;;21.36;74.79;99773.91;6272989;22;20042;-73
2022/08/17 05:01:29;;;;;;;12.68;8.45;;;;;;;21.56;74.10;99785.56;6273202;22;20690;-73
2022/08/17 05:03:57;;;;;;;13.85;8.00;;;;;;;21.72;73.32;99792.41;6271207;22;20011;-73
2022/08/17 05:06:23;;;;;;;10.85;7.65;;;;;;;21.88;72.87;99791.91;6272939;22;20313;-73
2022/08/17 05:08:49;;;;;;;13.32;8.63;;;;;;;22.03;72.29;99792.44;6271324;22;20015;-73
2022/08/17 05:11:15;;;;;;;15.40;8.45;;;;;;;22.13;71.95;99781.88;6271424;22;20008;-73
2022/08/17 05:13:40;;;;;;;19.23;7.88;;;;;;;22.34;71.36;99787.78;6272869;22;20072;-73
2022/08/17 05:16:07;;;;;;;18.13;8.15;;;;;;;22.46;71.09;99785.16;6272260;22;20007;-73
2022/08/17 05:18:33;;;;;;;19.17;8.38;;;;;;;22.65;70.46;99786.06;6270818;22;20039;-73
2022/08/17 05:20:59;;;;;;;18.70;8.52;;;;;;;22.72;69.86;99775.88;6272436;22;20004;-73
2022/08/17 05:23:27;;;;;;;15.77;8.13;;;;;;;22.92;69.39;99792.94;6272585;22;20012;-73
2022/08/17 05:25:55;;;;;;;14.90;7.68;;;;;;;23.01;68.35;99770.53;6272279;22;20003;-73
2022/08/17 05:28:22;;;;;;;13.75;8.48;;;;;;;23.34;67.36;99792.88;6271727;22;20030;-73
2022/08/17 05:30:48;;;;;;;19.85;8.07;;;;;;;23.42;67.22;99794.47;6271602;22;20040;-73
2022/08/17 05:33:20;;;;;;;12.13;7.53;;;;;;;23.53;67.64;99794.53;6272816;22;20053;-73
2022/08/17 05:35:48;;;;;;;12.70;7.55;;;;;;;23.72;67.02;99798.06;6272287;22;20010;-74
2022/08/17 05:38:15;;;;;;;12.50;7.53;;;;;;;23.77;66.95;99779.88;6272168;22;20014;-66
2022/08/17 05:40:42;;;;;;;11.85;7.55;;;;;;;24.03;66.67;99793.25;6267543;22;20065;-66
2022/08/17 05:43:12;;;;;;;19.20;7.63;;;;;;;24.24;65.96;99798.16;6270601;22;20416;-66
2022/08/17 05:45:59;;;;;;;15.73;7.22;;;;;;;24.48;65.21;99805.34;6271202;22;20004;-66
2022/08/17 05:48:25;;;;;;;11.65;7.68;;;;;;;24.66;64.74;99795.41;6270979;22;20004;-66
2022/08/17 05:51:00;;;;;;;14.15;8.32;;;;;;;24.81;64.10;99803.97;6271160;22;20008;-66
2022/08/17 05:53:38;;;;;;;14.10;8.23;;;;;;;25.04;62.83;99809.44;6270316;22;20012;-66
2022/08/17 05:56:32;;;;;;;8.60;7.70;;;;;;;25.16;62.98;99810.25;6269126;22;20011;-66
2022/08/17 05:59:18;;;;;;;11.20;7.13;;;;;;;25.35;62.51;99809.06;6270856;22;20007;-67
2022/08/17 06:02:03;;;;;;;9.60;7.35;;;;;;;25.47;61.70;99796.97;6270811;22;20006;-66
2022/08/17 06:05:06;;;;;;;10.57;7.18;;;;;;;25.79;61.44;99811.09;6271167;22;20014;-66
2022/08/17 06:07:46;;;;;;;13.95;7.25;;;;;;;25.90;59.83;99779.97;6270884;22;20065;-66
2022/08/17 06:10:15;;;;;;;8.73;7.35;;;;;;;26.20;59.32;99813.53;6270895;22;20019;-66
2022/08/17 06:12:57;;;;;;;13.35;7.50;;;;;;;26.32;58.64;99800.56;6270925;22;19999;-66
2022/08/17 06:15:41;;;;;;;9.63;7.20;;;;;;;26.58;58.26;99812.78;6270706;22;20489;-66
2022/08/17 06:18:09;;;;;;;19.67;7.72;;;;;;;26.74;57.78;99812.00;6269778;22;19999;-66
2022/08/17 06:20:47;;;;;;;11.20;7.55;;;;;;;26.90;56.70;99806.47;6270801;22;20004;-66
2022/08/17 06:23:25;;;;;;;10.98;7.72;;;;;;;27.03;56.66;99810.78;6270672;22;20046;-66
2022/08/17 06:25:57;;;;;;;13.02;6.07;;;;;;;27.21;55.82;99810.50;6270596;22;20011;-66
2022/08/17 06:28:30;;;;;;;9.95;7.40;;;;;;;27.34;55.16;99799.13;6270888;22;20323;-66
2022/08/17 06:31:03;;;;;;;13.13;7.50;;;;;;;27.48;54.64;99801.25;6270886;22;20003;-67
2022/08/17 06:33:32;;;;;;;11.60;5.68;;;;;;;27.63;53.91;99793.16;6270569;22;20352;-66
2022/08/17 06:36:33;;;;;;;17.17;7.68;;;;;;;27.83;53.30;99800.84;6270213;22;20003;-66
2022/08/17 06:39:34;;;;;;;11.82;7.57;;;;;;;27.89;52.95;99797.09;6270238;22;20057;-66
2022/08/17 06:42:09;;;;;;;12.13;6.55;;;;;;;28.07;52.43;99803.06;6270374;22;20460;-66
2022/08/17 06:44:46;;;;;;;12.05;6.85;;;;;;;28.18;52.22;99807.56;6270589;22;20390;-66
2022/08/17 06:47:39;;;;;;;13.07;7.32;;;;;;;28.25;52.14;99807.38;6267948;22;20004;-66
2022/08/17 06:50:14;;;;;;;11.93;6.32;;;;;;;28.36;51.30;99815.47;6213463;22;20085;-66
2022/08/17 06:53:09;;;;;;;10.02;7.28;;;;;;;28.62;50.80;99815.75;6269943;22;20016;-67
2022/08/17 06:55:48;;;;;;;14.13;6.82;;;;;;;28.65;50.70;99820.69;6257320;22;20046;-67
2022/08/17 06:58:21;;;;;;;9.68;5.50;;;;;;;28.69;50.14;99819.91;6269194;22;20027;-66
2022/08/17 07:00:48;;;;;;;8.18;6.00;;;;;;;28.80;50.16;99820.84;6270250;22;20082;-66
2022/08/17 07:03:37;;;;;;;8.18;6.15;;;;;;;28.92;50.21;99818.72;6270634;22;20027;-67
2022/08/17 07:06:17;;;;;;;7.72;6.50;;;;;;;29.01;50.21;99808.84;6270983;22;20004;-67
2022/08/17 07:09:16;;;;;;;7.95;5.85;;;;;;;29.19;48.22;99820.31;6269049;22;20357;-66
2022/08/17 07:11:50;;;;;;;14.80;5.55;;;;;;;29.24;48.08;99825.03;6203779;22;20495;-67
2022/08/17 07:14:53;;;;;;;6.70;5.50;;;;;;;29.29;48.77;99822.28;6269302;22;19999;-66
2022/08/17 07:17:23;;;;;;;9.18;6.53;;;;;;;29.47;48.57;99830.94;6265833;22;20703;-66
2022/08/17 07:20:01;;;;;;;8.13;6.18;;;;;;;29.54;48.49;99831.56;6266983;22;20388;-66
2022/08/17 07:22:26;;;;;;;10.65;7.05;;;;;;;29.60;48.34;99824.09;6270604;22;20007;-73
2022/08/17 07:24:56;;;;;;;10.18;6.63;;;;;;;29.68;48.58;99831.91;6268954;22;20839;-73
2022/08/17 07:27:30;;;;;;;6.47;5.85;;;;;;;29.90;47.41;99827.84;6268402;22;20069;-73
2022/08/17 07:30:06;;;;;;;8.23;6.30;;;;;;;30.03;47.28;99827.31;6268294;22;20008;-73
2022/08/17 07:32:40;;;;;;;11.73;5.93;;;;;;;30.11;46.79;99821.25;6270067;22;20004;-73
2022/08/17 07:35:22;;;;;;;9.10;5.88;;;;;;;30.32;46.59;99819.38;6270352;22;20420;-73
2022/08/17 07:38:10;;;;;;;9.77;6.20;;;;;;;30.44;46.51;99820.75;6270606;22;20301;-74
2022/08/17 07:41:01;;;;;;;6.72;6.13;;;;;;;30.63;46.09;99823.00;6270356;22;20004;-72
2022/08/17 07:43:30;;;;;;;10.55;6.43;;;;;;;30.77;45.12;99818.56;6270406;22;20016;-71
2022/08/17 07:48:53;;;;;;;6.60;5.40;;;;;;;31.06;43.91;99833.50;6270432;22;20019;-71
2022/08/17 07:51:26;;;;;;;8.32;6.05;;;;;;;31.15;43.81;99832.66;6271316;22;20451;-71
2022/08/17 07:53:54;;;;;;;11.30;6.43;;;;;;;31.22;43.17;99824.06;6270457;22;20015;-72
2022/08/17 07:56:45;;;;;;;13.18;6.03;;;;;;;31.38;42.91;99842.34;6272268;22;20016;-71
2022/08/17 07:59:17;;;;;;;9.40;6.07;;;;;;;31.40;42.44;99829.03;6272367;22;20076;-72
2022/08/17 08:02:04;;;;;;;7.80;6.07;;;;;;;31.54;42.10;99838.41;6270388;22;20027;-72
2022/08/17 08:04:41;;;;;;;6.63;5.70;;;;;;;31.58;41.72;99826.47;6272557;22;20011;-72
2022/08/17 08:07:49;;;;;;;7.75;5.57;;;;;;;31.63;41.20;99837.53;6272018;22;20004;-72
2022/08/17 08:10:31;;;;;;;6.75;5.57;;;;;;;31.74;41.56;99841.94;6272806;22;20086;-71
2022/08/17 08:13:10;;;;;;;10.10;6.03;;;;;;;31.80;41.22;99835.28;6270791;22;20027;-72
2022/08/17 08:15:43;;;;;;;8.40;5.75;;;;;;;31.77;41.16;99824.72;6270360;22;20073;-72
2022/08/17 08:18:32;;;;;;;10.05;5.80;;;;;;;31.92;41.05;99834.94;6270569;22;19999;-72
2022/08/17 08:21:03;;;;;;;6.30;5.70;;;;;;;32.02;40.88;99840.44;6269774;22;20042;-72
2022/08/17 08:23:35;;;;;;;7.05;5.45;;;;;;;32.13;40.12;99836.47;6269978;22;20015;-72
2022/08/17 08:26:19;;;;;;;8.82;6.00;;;;;;;32.13;40.04;99834.53;6271791;22;20003;-72
2022/08/17 08:28:48;;;;;;;7.88;5.38;;;;;;;32.18;40.42;99839.22;6272256;22;20064;-72
2022/08/17 08:31:43;;;;;;;6.88;5.40;;;;;;;32.20;39.66;99835.03;6270587;22;20025;-72
2022/08/17 08:34:44;;;;;;;5.90;5.30;;;;;;;32.29;39.88;99843.59;6271358;22;20079;-72
2022/08/17 08:37:19;;;;;;;7.05;5.43;;;;;;;32.44;39.97;99836.00;6250234;22;20065;-74
2022/08/17 08:40:06;;;;;;;8.57;5.43;;;;;;;32.51;39.73;99828.22;6271044;22;20086;-73
2022/08/17 08:42:55;;;;;;;8.23;5.78;;;;;;;32.61;39.02;99835.59;6269321;22;20072;-74
2022/08/17 08:45:25;;;;;;;6.40;5.40;;;;;;;32.75;38.03;99839.38;6271193;22;20082;-73
2022/08/17 08:48:06;;;;;;;10.65;5.57;;;;;;;32.69;38.02;99839.72;6271509;22;20003;-75
2022/08/17 08:50:56;;;;;;;5.88;5.38;;;;;;;32.69;38.53;99834.16;6271786;22;20007;-73
2022/08/17 08:53:30;;;;;;;6.70;5.78;;;;;;;32.77;38.36;99817.69;6272197;22;20693;-74
2022/08/17 08:56:19;;;;;;;9.13;4.85;;;;;;;32.89;38.09;99832.06;6270145;22;20065;-74
2022/08/17 08:59:01;;;;;;;6.25;5.53;;;;;;;32.87;37.96;99811.22;6270998;22;20094;-73
2022/08/17 09:01:40;;;;;;;6.38;5.55;;;;;;;32.92;37.34;99813.97;6271559;22;20000;-75
2022/08/17 09:04:08;;;;;;;7.53;5.70;;;;;;;33.03;37.72;99819.13;6271289;22;20007;-75
2022/08/17 09:06:43;;;;;;;7.90;5.70;;;;;;;33.08;37.49;99829.38;6271813;22;20008;-72
2022/08/17 09:09:14;;;;;;;7.70;5.68;;;;;;;33.22;36.47;99827.56;6270073;22;20110;-73
2022/08/17 09:11:55;;;;;;;8.93;5.63;;;;;;;33.23;36.07;99818.09;6271674;22;20003;-74
2022/08/17 09:14:30;;;;;;;7.40;5.63;;;;;;;33.24;36.51;99815.00;6271908;22;20482;-73
2022/08/17 09:17:13;;;;;;;6.85;5.13;;;;;;;33.33;36.97;99820.78;6271866;22;20015;-74
2022/08/17 09:19:47;;;;;;;6.00;5.18;;;;;;;33.36;36.78;99809.09;6271919;22;20579;-74
2022/08/17 09:22:34;;;;;;;8.57;5.55;;;;;;;33.49;36.90;99822.28;6269863;22;20012;-74
2022/08/17 09:25:09;;;;;;;5.68;5.07;;;;;;;33.48;36.96;99824.25;6271354;22;20499;-74
2022/08/17 09:27:49;;;;;;;6.90;5.70;;;;;;;33.55;36.78;99821.91;6271800;22;20085;-74
2022/08/17 09:30:15;;;;;;;7.43;5.22;;;;;;;33.62;36.41;99821.56;6269455;22;20015;-74
2022/08/17 09:32:53;;;;;;;5.38;4.88;;;;;;;33.65;35.85;99818.16;6271353;22;20079;-74
2022/08/17 09:35:43;;;;;;;8.05;4.65;;;;;;;33.77;35.15;99826.94;6271297;22;20080;-74
2022/08/17 09:38:27;;;;;;;5.30;4.80;;;;;;;33.84;35.02;99828.22;6271533;22;20000;-75
2022/08/17 09:41:15;;;;;;;7.32;5.32;;;;;;;33.84;35.06;99816.25;6270719;22;20072;-74
2022/08/17 09:44:12;;;;;;;6.28;5.18;;;;;;;33.85;35.14;99815.16;6254868;22;20016;-74
2022/08/17 09:46:46;;;;;;;5.15;4.75;;;;;;;33.91;35.10;99819.53;6271624;22;20011;-73
2022/08/17 09:49:32;;;;;;;7.50;4.80;;;;;;;33.93;34.72;99817.28;6271235;22;20043;-73
2022/08/17 09:52:23;;;;;;;6.72;5.20;;;;;;;33.93;34.27;99800.59;6271141;22;20083;-74
2022/08/17 09:54:50;;;;;;;5.18;4.72;;;;;;;33.99;34.34;99804.94;6253592;22;20432;-75
2022/08/17 09:57:22;;;;;;;5.82;4.57;;;;;;;34.01;34.01;99814.66;6270215;22;20003;-73
2022/08/17 10:00:12;;;;;;;6.05;4.03;;;;;;;34.10;33.44;99812.84;6271015;22;19999;-74
2022/08/17 10:02:59;;;;;;;5.47;4.70;;;;;;;34.21;33.17;99813.53;6269796;22;20006;-73
2022/08/17 10:05:54;;;;;;;7.00;4.97;;;;;;;34.23;33.15;99817.66;6271164;22;20012;-75
2022/08/17 10:08:52;;;;;;;7.47;4.47;;;;;;;34.14;33.54;99790.81;6271576;22;20061;-74
2022/08/17 10:12:21;;;;;;;9.07;4.80;;;;;;;34.28;33.14;99813.97;6264064;22;20012;-74
2022/08/17 10:14:56;;;;;;;6.03;4.38;;;;;;;34.24;33.39;99807.38;6219595;22;20340;-74
2022/08/17 10:17:49;;;;;;;5.05;4.30;;;;;;;34.40;32.09;99800.47;6270182;22;20008;-74
2022/08/17 10:20:20;;;;;;;5.80;4.40;;;;;;;34.31;33.10;99811.41;6270653;22;20344;-73
2022/08/17 10:28:35;;;;;;;4.85;4.20;;;;;;;34.31;33.23;99802.25;6271761;22;20015;-73
2022/08/17 10:31:05;;;;;;;6.10;4.95;;;;;;;34.19;33.65;99779.59;6270694;22;20337;-73
2022/08/17 10:34:12;;;;;;;6.55;5.10;;;;;;;34.33;33.22;99799.97;6271230;22;20359;-73
2022/08/17 10:36:47;;;;;;;6.22;4.60;;;;;;;34.32;32.83;99801.94;6270886;22;20069;-73
2022/08/17 10:39:19;;;;;;;6.75;4.57;;;;;;;34.34;32.23;99794.09;6270751;22;20139;-74
2022/08/17 10:41:49;;;;;;;4.72;4.32;;;;;;;34.26;32.45;99789.22;6269640;22;20428;-74
2022/08/17 10:44:55;;;;;;;4.72;4.32;;;;;;;34.30;32.80;99795.03;6271254;22;20023;-73
2022/08/17 10:47:25;;;;;;;6.45;4.93;;;;;;;34.34;33.12;99802.44;6225501;22;20011;-73
2022/08/17 10:49:54;;;;;;;5.75;5.07;;;;;;;34.30;33.29;99781.91;6270978;22;20015;-73
2022/08/17 10:52:25;;;;;;;4.85;4.45;;;;;;;34.42;32.91;99798.19;6269916;22;20306;-73
2022/08/17 10:54:50;;;;;;;4.82;4.35;;;;;;;34.43;32.61;99791.50;6271230;22;20019;-73
2022/08/17 10:57:30;;;;;;;6.63;4.78;;;;;;;34.54;32.92;99795.78;6270458;22;20003;-74
2022/08/17 10:59:58;;;;;;;6.45;4.85;;;;;;;34.55;32.83;99795.47;6268989;22;20060;-73
2022/08/17 11:02:49;;;;;;;5.22;4.60;;;;;;;34.52;33.17;99789.66;6268915;22;20035;-74
2022/08/17 11:05:30;;;;;;;6.32;4.95;;;;;;;34.68;32.35;99781.88;6270387;22;20018;-73
2022/08/17 11:08:06;;;;;;;4.78;4.30;;;;;;;34.54;32.12;99773.47;6270747;22;20008;-73
2022/08/17 11:10:41;;;;;;;7.13;4.93;;;;;;;34.60;32.46;99798.16;6269141;22;20448;-74
2022/08/17 11:13:14;;;;;;;5.07;4.63;;;;;;;34.61;32.02;99793.41;6270941;22;20057;-73
2022/08/17 11:16:09;;;;;;;4.60;4.20;;;;;;;34.65;32.12;99783.31;6270742;22;20004;-73
2022/08/17 11:18:56;;;;;;;7.43;4.47;;;;;;;34.70;32.05;99788.81;6226505;22;20007;-74
2022/08/17 11:21:37;;;;;;;5.10;4.40;;;;;;;34.79;30.98;99791.72;6271090;22;20016;-74
2022/08/17 11:24:10;;;;;;;7.45;4.00;;;;;;;34.80;30.08;99773.84;6271291;22;20058;-75
2022/08/17 11:26:40;;;;;;;4.93;3.83;;;;;;;34.68;30.44;99754.81;6270768;22;20004;-73
2022/08/17 11:29:18;;;;;;;5.00;3.55;;;;;;;34.86;30.58;99776.28;6271664;22;20042;-73
2022/08/17 11:31:58;;;;;;;6.50;4.45;;;;;;;34.89;30.21;99767.31;6273451;22;20006;-73
2022/08/17 11:34:30;;;;;;;5.18;3.55;;;;;;;34.97;29.60;99766.59;6273233;22;20010;-73
2022/08/17 11:37:42;;;;;;;4.60;3.72;;;;;;;34.94;29.79;99767.19;6272903;22;20305;-73
2022/08/17 11:40:34;;;;;;;6.00;3.90;;;;;;;34.95;29.59;99742.94;6266717;22;20019;-73
2022/08/17 11:43:26;;;;;;;3.53;3.22;;;;;;;35.09;29.42;99750.19;6263594;22;20011;-74
2022/08/17 11:45:57;;;;;;;6.22;3.78;;;;;;;35.22;29.04;99754.94;6270300;22;20019;-73
2022/08/17 11:52:10;;;;;;;3.92;3.60;;;;;;;35.17;29.72;99759.81;6270171;22;20038;-75
2022/08/17 11:54:41;;;;;;;4.97;3.47;;;;;;;35.16;29.47;99733.03;6269672;22;20012;-75
2022/08/17 11:57:24;;;;;;;4.25;3.60;;;;;;;35.22;29.50;99748.53;6269071;22;20003;-72
2022/08/17 11:59:50;;;;;;;4.80;3.72;;;;;;;35.21;29.54;99746.88;6270924;22;20007;-74
2022/08/17 12:02:30;;;;;;;10.30;3.10;;;;;;;35.31;28.24;99758.66;6271175;22;20002;-74
2022/08/17 12:05:13;;;;;;;5.85;3.67;;;;;;;35.31;28.13;99747.50;6271136;22;20045;-73
2022/08/17 12:07:41;;;;;;;4.82;3.00;;;;;;;35.24;28.09;99747.09;6272104;22;20110;-74
2022/08/17 12:10:11;;;;;;;5.20;3.00;;;;;;;35.25;27.33;99732.00;6269549;22;20057;-73
2022/08/17 12:12:42;;;;;;;6.60;3.30;;;;;;;35.22;27.66;99738.22;6271390;22;19996;-75
2022/08/17 12:15:16;;;;;;;5.18;2.90;;;;;;;35.35;27.15;99754.16;6269230;22;20007;-75
2022/08/17 12:18:00;;;;;;;5.90;2.75;;;;;;;35.28;26.73;99750.06;6269582;22;20082;-75
2022/08/17 12:20:33;;;;;;;4.00;3.05;;;;;;;35.26;27.48;99744.81;6271049;22;20073;-74
2022/08/17 12:23:16;;;;;;;6.03;3.87;;;;;;;35.14;27.68;99724.97;6269372;22;20011;-74
2022/08/17 12:25:50;;;;;;;3.70;3.30;;;;;;;35.31;27.71;99736.34;6268916;22;20449;-74
2022/08/17 12:28:28;;;;;;;3.75;3.40;;;;;;;35.24;27.27;99727.56;6270915;22;20003;-74